createdAt,value
2023-04-25T00:00:18.453Z,6.50
2023-04-25T00:02:45.590Z,6.50
2023-04-25T00:05:13.435Z,6.40
2023-04-25T00:07:42.994Z,6.40
2023-04-25T00:10:12.107Z,6.30
2023-04-25T00:12:40.076Z,6.30
2023-04-25T00:15:08.053Z,6.20
2023-04-25T00:17:35.950Z,6.10
2023-04-25T00:20:06.111Z,6.00
2023-04-25T00:22:35.327Z,5.90
2023-04-25T00:25:02.303Z,5.80
2023-04-25T00:27:29.247Z,5.80
2023-04-25T00:29:56.203Z,5.80
2023-04-25T00:32:23.182Z,5.80
2023-04-25T00:34:50.280Z,5.70
2023-04-25T00:37:17.480Z,5.70
2023-04-25T00:39:44.541Z,5.60
2023-04-25T00:42:12.723Z,5.60
2023-04-25T00:44:40.692Z,5.50
2023-04-25T00:47:09.093Z,5.50
2023-04-25T00:49:36.087Z,5.50
2023-04-25T00:52:03.329Z,5.50
2023-04-25T00:54:31.746Z,5.50
2023-04-25T00:56:59.796Z,5.60
2023-04-25T00:59:28.172Z,5.60
2023-04-25T01:01:55.934Z,5.70
2023-04-25T01:04:23.186Z,5.70
2023-04-25T01:06:50.968Z,5.70
2023-04-25T01:09:18.762Z,5.80
2023-04-25T01:11:45.776Z,5.70
2023-04-25T01:14:12.751Z,5.70
2023-04-25T01:16:39.801Z,5.60
2023-04-25T01:19:14.479Z,5.50
2023-04-25T01:21:41.830Z,5.50
2023-04-25T01:24:09.189Z,5.40
2023-04-25T01:26:37.520Z,5.40
2023-04-25T01:29:08.826Z,5.30
2023-04-25T01:31:37.526Z,5.30
2023-04-25T01:34:06.437Z,5.20
2023-04-25T01:36:33.864Z,5.10
2023-04-25T01:39:01.937Z,5.00
2023-04-25T01:41:29.405Z,4.90
2023-04-25T01:43:57.029Z,4.90
2023-04-25T01:46:24.515Z,5.00
2023-04-25T01:48:51.669Z,5.00
2023-04-25T01:51:19.131Z,5.00
2023-04-25T01:53:46.366Z,5.10
2023-04-25T01:56:14.123Z,5.10
2023-04-25T01:58:41.176Z,5.20
2023-04-25T02:01:20.076Z,5.20
2023-04-25T02:04:00.163Z,5.20
2023-04-25T02:06:34.047Z,5.30
2023-04-25T02:09:01.124Z,5.30
2023-04-25T02:11:28.306Z,5.30
2023-04-25T02:14:14.368Z,5.30
2023-04-25T02:16:48.387Z,5.30
2023-04-25T02:19:15.561Z,5.40
2023-04-25T02:21:42.627Z,5.40
2023-04-25T02:24:11.813Z,5.40
2023-04-25T02:26:38.785Z,5.40
2023-04-25T02:29:11.181Z,5.50
2023-04-25T02:31:38.195Z,5.40
2023-04-25T02:34:05.741Z,5.40
2023-04-25T02:36:38.129Z,5.40
2023-04-25T02:39:05.241Z,5.40
2023-04-25T02:41:32.372Z,5.50
2023-04-25T02:43:59.427Z,5.40
2023-04-25T02:46:38.407Z,5.40
2023-04-25T02:49:07.573Z,5.40
2023-04-25T02:51:35.651Z,5.40
2023-04-25T02:54:02.938Z,5.40
2023-04-25T02:56:31.728Z,5.40
2023-04-25T02:58:59.286Z,5.40
2023-04-25T03:01:26.675Z,5.40
2023-04-25T03:03:54.093Z,5.40
2023-04-25T03:06:21.611Z,5.40
2023-04-25T03:08:48.774Z,5.40
2023-04-25T03:11:15.867Z,5.30
2023-04-25T03:13:43.995Z,5.30
2023-04-25T03:16:12.040Z,5.30
2023-04-25T03:18:39.232Z,5.30
2023-04-25T03:21:06.512Z,5.30
2023-04-25T03:23:33.640Z,5.30
2023-04-25T03:26:01.101Z,5.20
2023-04-25T03:28:28.786Z,5.20
2023-04-25T03:30:57.341Z,5.20
2023-04-25T03:33:25.145Z,5.20
2023-04-25T03:35:52.702Z,5.20
2023-04-25T03:38:20.068Z,5.20
2023-04-25T03:40:47.192Z,5.10
2023-04-25T03:43:32.726Z,5.00
2023-04-25T03:46:05.132Z,5.00
2023-04-25T03:48:32.263Z,4.90
2023-04-25T03:50:59.913Z,4.90
2023-04-25T03:53:26.973Z,4.90
2023-04-25T03:56:23.063Z,4.80
2023-04-25T03:59:01.088Z,4.80
2023-04-25T04:01:30.251Z,4.80
2023-04-25T04:03:57.806Z,4.80
2023-04-25T04:06:26.619Z,4.70
2023-04-25T04:09:00.841Z,4.70
2023-04-25T04:11:28.315Z,4.70
2023-04-25T04:13:56.783Z,4.70
2023-04-25T04:16:24.131Z,4.70
2023-04-25T04:18:51.247Z,4.70
2023-04-25T04:21:18.285Z,4.70
2023-04-25T04:23:45.719Z,4.70
2023-04-25T04:26:13.992Z,4.70
2023-04-25T04:29:00.230Z,4.70
2023-04-25T04:31:39.973Z,4.70
2023-04-25T04:34:07.166Z,4.70
2023-04-25T04:36:35.701Z,4.70
2023-04-25T04:39:04.276Z,4.70
2023-04-25T04:41:43.862Z,4.70
2023-04-25T04:44:35.454Z,4.70
2023-04-25T04:47:32.345Z,4.80
2023-04-25T04:50:37.867Z,4.80
2023-04-25T04:53:22.272Z,4.90
2023-04-25T04:56:08.163Z,4.90
2023-04-25T04:58:55.015Z,4.90
2023-04-25T05:01:31.271Z,4.90
2023-04-25T05:04:06.883Z,4.90
2023-04-25T05:06:52.691Z,4.90
2023-04-25T05:09:26.800Z,4.90
2023-04-25T05:12:11.751Z,4.90
2023-04-25T05:15:01.391Z,4.90
2023-04-25T05:17:47.013Z,4.90
2023-04-25T05:20:33.523Z,4.80
2023-04-25T05:23:28.852Z,4.80
2023-04-25T05:26:14.843Z,4.80
2023-04-25T05:29:08.076Z,4.80
2023-04-25T05:31:55.494Z,4.80
2023-04-25T05:34:22.537Z,4.90
2023-04-25T05:36:57.085Z,4.90
2023-04-25T05:39:24.724Z,5.00
2023-04-25T05:42:08.623Z,5.00
2023-04-25T05:44:54.365Z,5.20
2023-04-25T05:47:34.446Z,5.40
2023-04-25T05:50:24.351Z,5.50
2023-04-25T05:53:10.257Z,5.60
2023-04-25T05:55:40.829Z,5.80
2023-04-25T05:58:25.658Z,5.80
2023-04-25T06:00:52.806Z,5.90
2023-04-25T06:03:20.861Z,6.00
2023-04-25T06:05:49.264Z,6.00
2023-04-25T06:08:16.309Z,6.00
2023-04-25T06:10:43.758Z,6.10
2023-04-25T06:13:10.957Z,6.20
2023-04-25T06:15:38.689Z,6.20
2023-04-25T06:18:05.869Z,6.20
2023-04-25T06:20:34.787Z,6.30
2023-04-25T06:23:02.161Z,6.40
2023-04-25T06:25:46.745Z,6.40
2023-04-25T06:28:13.914Z,6.60
2023-04-25T06:30:42.004Z,6.50
2023-04-25T06:33:13.289Z,6.50
2023-04-25T06:35:41.512Z,6.50
2023-04-25T06:38:11.911Z,6.50
2023-04-25T06:40:41.059Z,6.40
2023-04-25T06:43:09.553Z,6.50
2023-04-25T06:45:50.105Z,6.60
2023-04-25T06:48:18.027Z,6.70
2023-04-25T06:50:45.615Z,6.80
2023-04-25T06:53:13.601Z,6.90
2023-04-25T06:55:43.017Z,7.10
2023-04-25T06:58:17.625Z,7.40
2023-04-25T07:01:10.235Z,7.50
2023-04-25T07:03:38.742Z,7.30
2023-04-25T07:06:10.905Z,7.20
2023-04-25T07:08:39.195Z,7.10
2023-04-25T07:11:06.502Z,7.10
2023-04-25T07:13:33.546Z,7.00
2023-04-25T07:16:01.534Z,7.10
2023-04-25T07:18:30.974Z,7.30
2023-04-25T07:20:58.399Z,7.70
2023-04-25T07:23:25.613Z,7.60
2023-04-25T07:25:53.580Z,7.80
2023-04-25T07:28:23.473Z,7.80
2023-04-25T07:30:50.651Z,7.80
2023-04-25T07:33:18.106Z,7.80
2023-04-25T07:35:45.206Z,7.80
2023-04-25T07:38:12.604Z,7.90
2023-04-25T07:40:40.277Z,7.90
2023-04-25T07:43:09.563Z,8.00
2023-04-25T07:45:48.059Z,8.10
2023-04-25T07:48:20.868Z,8.30
2023-04-25T07:50:49.094Z,8.40
2023-04-25T07:53:18.539Z,8.40
2023-04-25T07:55:52.448Z,8.50
2023-04-25T07:58:22.879Z,8.60
2023-04-25T08:00:54.463Z,8.80
2023-04-25T08:03:44.194Z,9.00
2023-04-25T08:06:19.015Z,8.90
2023-04-25T08:08:58.110Z,8.90
2023-04-25T08:11:32.899Z,8.60
2023-04-25T08:14:00.852Z,8.40
2023-04-25T08:16:28.495Z,8.20
2023-04-25T08:18:55.906Z,7.80
2023-04-25T08:21:23.839Z,7.60
2023-04-25T08:23:51.337Z,7.20
2023-04-25T08:26:29.586Z,7.20
2023-04-25T08:28:56.731Z,7.10
2023-04-25T08:31:23.858Z,7.10
2023-04-25T08:33:57.824Z,7.50
2023-04-25T08:36:42.685Z,8.00
2023-04-25T08:39:39.682Z,8.50
2023-04-25T08:42:32.405Z,8.50
2023-04-25T08:45:04.194Z,8.80
2023-04-25T08:47:38.930Z,8.90
2023-04-25T08:50:08.257Z,9.00
2023-04-25T08:52:47.092Z,9.10
2023-04-25T08:55:16.751Z,9.20
2023-04-25T08:57:44.738Z,9.30
2023-04-25T09:00:13.966Z,9.20
2023-04-25T09:02:44.986Z,9.50
2023-04-25T09:05:15.195Z,9.50
2023-04-25T09:07:43.318Z,9.70
2023-04-25T09:10:10.782Z,9.80
2023-04-25T09:12:39.580Z,9.50
2023-04-25T09:15:20.431Z,9.90
2023-04-25T09:18:09.473Z,10.40
2023-04-25T09:21:00.688Z,10.10
2023-04-25T09:23:30.069Z,9.50
2023-04-25T09:25:57.439Z,8.30
2023-04-25T09:28:28.546Z,7.60
2023-04-25T09:30:58.865Z,7.10
2023-04-25T09:33:38.430Z,6.90
2023-04-25T09:36:14.347Z,6.90
2023-04-25T09:39:16.832Z,7.10
2023-04-25T09:41:55.715Z,7.50
2023-04-25T09:44:26.484Z,7.60
2023-04-25T09:46:55.684Z,7.60
2023-04-25T09:49:28.612Z,7.70
2023-04-25T09:52:02.337Z,7.80
2023-04-25T09:54:35.823Z,8.00
2023-04-25T09:57:22.139Z,8.40
2023-04-25T09:59:55.673Z,8.90
2023-04-25T10:02:26.750Z,9.20
2023-04-25T10:04:57.821Z,9.50
2023-04-25T10:07:43.206Z,9.50
2023-04-25T10:10:15.614Z,9.30
2023-04-25T10:12:45.124Z,8.70
2023-04-25T10:15:13.615Z,8.10
2023-04-25T10:17:41.394Z,7.80
2023-04-25T10:20:12.451Z,7.60
2023-04-25T10:22:49.777Z,7.70
2023-04-25T10:25:17.891Z,7.70
2023-04-25T10:27:45.402Z,8.00
2023-04-25T10:30:16.383Z,8.50
2023-04-25T10:32:44.396Z,8.80
2023-04-25T10:35:19.523Z,9.10
2023-04-25T10:38:11.145Z,9.20
2023-04-25T10:40:38.285Z,9.60
2023-04-25T10:43:41.519Z,9.90
2023-04-25T10:46:33.287Z,10.40
2023-04-25T10:49:03.337Z,10.60
2023-04-25T10:54:26.123Z,10.40
2023-04-25T10:56:59.507Z,10.10
2023-04-25T10:59:26.697Z,9.90
2023-04-25T11:01:57.129Z,9.70
2023-04-25T11:04:33.094Z,9.70
2023-04-25T11:07:25.214Z,9.70
2023-04-25T11:09:52.902Z,9.60
2023-04-25T11:12:20.112Z,9.90
2023-04-25T11:14:47.127Z,10.80
2023-04-25T11:17:14.314Z,10.80
2023-04-25T11:19:41.813Z,10.30
2023-04-25T11:22:09.024Z,9.90
2023-04-25T11:24:37.584Z,9.50
2023-04-25T11:27:07.029Z,9.30
2023-04-25T11:29:35.926Z,9.40
2023-04-25T11:32:03.651Z,9.90
2023-04-25T11:34:34.002Z,10.10
2023-04-25T11:37:03.528Z,10.20
2023-04-25T11:39:30.893Z,10.30
2023-04-25T11:41:58.187Z,10.70
2023-04-25T11:44:25.552Z,10.50
2023-04-25T11:46:52.891Z,10.50
2023-04-25T11:49:20.097Z,10.40
2023-04-25T11:51:49.241Z,10.20
2023-04-25T11:54:16.990Z,10.10
2023-04-25T11:56:47.539Z,9.70
2023-04-25T11:59:15.808Z,9.30
2023-04-25T12:01:50.516Z,9.20
2023-04-25T12:04:24.194Z,9.70
2023-04-25T12:06:56.677Z,10.30
2023-04-25T12:09:34.520Z,10.40
2023-04-25T12:12:05.684Z,10.80
2023-04-25T12:14:35.971Z,10.30
2023-04-25T12:17:08.999Z,10.20
2023-04-25T12:19:41.594Z,10.00
2023-04-25T12:22:24.562Z,9.90
2023-04-25T12:24:54.120Z,10.60
2023-04-25T12:27:21.349Z,10.50
2023-04-25T12:29:54.419Z,10.10
2023-04-25T12:32:21.823Z,10.00
2023-04-25T12:34:49.057Z,9.70
2023-04-25T12:37:16.699Z,9.40
2023-04-25T12:39:43.987Z,9.80
2023-04-25T12:42:14.054Z,10.30
2023-04-25T12:44:42.024Z,10.60
2023-04-25T12:47:09.317Z,10.30
2023-04-25T12:49:36.655Z,9.40
2023-04-25T12:52:03.679Z,8.80
2023-04-25T12:54:31.397Z,8.80
2023-04-25T12:56:59.205Z,8.70
2023-04-25T12:59:26.335Z,8.50
2023-04-25T13:01:54.301Z,8.60
2023-04-25T13:04:22.554Z,9.30
2023-04-25T13:06:49.794Z,9.70
2023-04-25T13:09:16.901Z,10.20
2023-04-25T13:11:44.431Z,10.40
2023-04-25T13:14:11.750Z,10.30
2023-04-25T13:16:38.928Z,10.30
2023-04-25T13:19:08.689Z,9.90
2023-04-25T13:21:36.069Z,9.90
2023-04-25T13:24:03.552Z,10.00
2023-04-25T13:26:30.969Z,10.00
2023-04-25T13:28:58.260Z,9.90
2023-04-25T13:31:25.753Z,9.90
2023-04-25T13:33:53.486Z,10.00
2023-04-25T13:36:21.048Z,10.10
2023-04-25T13:38:50.163Z,10.50
2023-04-25T13:41:19.779Z,10.40
2023-04-25T13:43:48.843Z,10.30
2023-04-25T13:46:35.479Z,10.10
2023-04-25T13:49:12.411Z,9.90
2023-04-25T13:51:40.493Z,10.00
2023-04-25T13:54:07.678Z,10.20
2023-04-25T13:56:34.749Z,10.60
2023-04-25T13:59:01.835Z,10.80
2023-04-25T14:01:29.261Z,10.90
2023-04-25T14:03:56.510Z,10.90
2023-04-25T14:06:24.979Z,11.20
2023-04-25T14:08:52.211Z,11.40
2023-04-25T14:11:19.429Z,11.50
2023-04-25T14:13:47.470Z,11.60
2023-04-25T14:16:14.575Z,11.40
2023-04-25T14:18:41.820Z,10.90
2023-04-25T14:21:10.856Z,10.80
2023-04-25T14:23:37.932Z,10.60
2023-04-25T14:26:05.205Z,10.90
2023-04-25T14:28:32.880Z,11.20
2023-04-25T14:30:59.979Z,11.10
2023-04-25T14:33:27.396Z,10.80
2023-04-25T14:35:54.694Z,10.70
2023-04-25T14:38:24.211Z,10.60
2023-04-25T14:40:52.255Z,10.20
2023-04-25T14:43:19.257Z,9.80
2023-04-25T14:45:47.563Z,9.60
2023-04-25T14:48:14.764Z,9.50
2023-04-25T14:50:41.943Z,9.40
2023-04-25T14:53:09.117Z,9.30
2023-04-25T14:55:36.445Z,9.40
2023-04-25T14:58:03.464Z,9.50
2023-04-25T15:00:32.582Z,10.00
2023-04-25T15:03:00.330Z,9.90
2023-04-25T15:05:27.694Z,9.60
2023-04-25T15:07:54.832Z,9.50
2023-04-25T15:10:23.249Z,9.40
2023-04-25T15:12:51.332Z,9.30
2023-04-25T15:15:26.103Z,9.70
2023-04-25T15:17:58.822Z,10.00
2023-04-25T15:20:26.839Z,10.10
2023-04-25T15:22:54.033Z,9.90
2023-04-25T15:25:21.127Z,10.10
2023-04-25T15:27:49.566Z,10.30
2023-04-25T15:30:17.721Z,10.20
2023-04-25T15:32:46.375Z,10.30
2023-04-25T15:35:15.132Z,10.60
2023-04-25T15:37:42.357Z,10.60
2023-04-25T15:40:17.546Z,10.40
2023-04-25T15:42:53.136Z,10.30
2023-04-25T15:45:25.871Z,10.10
2023-04-25T15:47:55.364Z,9.90
2023-04-25T15:50:23.766Z,10.10
2023-04-25T15:52:52.479Z,10.10
2023-04-25T15:55:26.657Z,9.90
2023-04-25T15:57:54.156Z,9.60
2023-04-25T16:00:22.567Z,9.60
2023-04-25T16:02:50.280Z,9.20
2023-04-25T16:05:18.480Z,9.20
2023-04-25T16:07:46.873Z,9.10
2023-04-25T16:10:17.214Z,9.30
2023-04-25T16:12:44.301Z,9.70
2023-04-25T16:15:11.497Z,9.90
2023-04-25T16:17:38.642Z,10.20
2023-04-25T16:20:10.379Z,10.40
2023-04-25T16:22:43.265Z,10.30
2023-04-25T16:25:12.320Z,10.00
2023-04-25T16:27:39.473Z,9.80
2023-04-25T16:30:09.962Z,9.50
2023-04-25T16:32:38.181Z,9.30
2023-04-25T16:35:05.956Z,9.10
2023-04-25T16:37:33.250Z,8.80
2023-04-25T16:40:00.567Z,8.80
2023-04-25T16:42:27.658Z,8.80
2023-04-25T16:44:54.783Z,8.70
2023-04-25T16:47:22.112Z,8.80
2023-04-25T16:49:49.202Z,8.80
2023-04-25T16:52:16.394Z,8.90
2023-04-25T16:54:43.817Z,8.80
2023-04-25T16:57:11.367Z,8.60
2023-04-25T16:59:39.585Z,8.50
2023-04-25T17:02:12.854Z,8.40
2023-04-25T17:04:41.075Z,8.30
2023-04-25T17:07:09.103Z,8.30
2023-04-25T17:09:36.467Z,8.40
2023-04-25T17:12:05.482Z,8.40
2023-04-25T17:14:35.380Z,8.40
2023-04-25T17:17:02.643Z,8.30
2023-04-25T17:19:31.200Z,8.30
2023-04-25T17:21:58.314Z,8.30
2023-04-25T17:24:25.522Z,8.30
2023-04-25T17:26:52.723Z,8.30
2023-04-25T17:29:21.670Z,8.40
2023-04-25T17:31:48.752Z,8.30
2023-04-25T17:34:18.140Z,8.10
2023-04-25T17:36:45.883Z,7.90
2023-04-25T17:39:17.177Z,7.90
2023-04-25T17:41:45.018Z,7.90
2023-04-25T17:44:12.120Z,7.80
2023-04-25T17:46:39.243Z,7.80
2023-04-25T17:49:06.378Z,7.70
2023-04-25T17:51:33.439Z,7.80
2023-04-25T17:54:00.655Z,7.80
2023-04-25T17:56:28.003Z,7.90
2023-04-25T17:58:55.941Z,7.90
2023-04-25T18:01:23.402Z,8.10
2023-04-25T18:03:51.813Z,8.00
2023-04-25T18:06:19.204Z,8.00
2023-04-25T18:08:47.295Z,7.90
2023-04-25T18:11:14.568Z,7.90
2023-04-25T18:13:41.791Z,7.80
2023-04-25T18:16:09.327Z,7.80
2023-04-25T18:18:36.809Z,7.70
2023-04-25T18:21:07.375Z,7.60
2023-04-25T18:23:34.880Z,7.50
2023-04-25T18:26:04.041Z,7.50
2023-04-25T18:28:31.159Z,7.40
2023-04-25T18:30:58.163Z,7.30
2023-04-25T18:33:25.348Z,7.20
2023-04-25T18:38:34.955Z,7.10
2023-04-25T18:41:26.957Z,6.90
2023-04-25T18:43:51.643Z,6.90
2023-04-25T18:46:22.394Z,6.70
2023-04-25T18:48:51.460Z,6.60
2023-04-25T18:51:27.669Z,6.60
2023-04-25T18:53:55.519Z,6.60
2023-04-25T18:56:25.996Z,6.40
2023-04-25T18:58:54.839Z,6.40
2023-04-25T19:01:25.647Z,6.30
2023-04-25T19:03:56.987Z,6.30
2023-04-25T19:06:27.857Z,6.20
2023-04-25T19:08:56.429Z,6.10
2023-04-25T19:11:24.312Z,6.10
2023-04-25T19:13:51.966Z,6.00
2023-04-25T19:16:19.717Z,6.00
2023-04-25T19:18:47.027Z,5.90
2023-04-25T19:21:14.662Z,5.80
2023-04-25T19:23:41.960Z,5.80
2023-04-25T19:26:09.292Z,5.70
2023-04-25T19:28:36.578Z,5.60
2023-04-25T19:31:03.818Z,5.60
2023-04-25T19:33:31.275Z,5.40
2023-04-25T19:35:58.448Z,5.30
2023-04-25T19:38:25.537Z,5.20
2023-04-25T19:40:52.685Z,5.20
2023-04-25T19:43:19.899Z,5.10
2023-04-25T19:45:46.925Z,5.10
2023-04-25T19:48:14.203Z,5.00
2023-04-25T19:50:41.968Z,4.90
2023-04-25T19:53:09.585Z,4.80
2023-04-25T19:55:36.941Z,4.70
2023-04-25T19:58:04.508Z,4.70
2023-04-25T20:00:31.590Z,4.60
2023-04-25T20:02:58.712Z,4.60
2023-04-25T20:05:27.064Z,4.60
2023-04-25T20:07:54.192Z,4.60
2023-04-25T20:10:21.321Z,4.50
2023-04-25T20:12:48.633Z,4.50
2023-04-25T20:15:18.220Z,4.40
2023-04-25T20:17:45.580Z,4.40
2023-04-25T20:20:12.724Z,4.50
2023-04-25T20:22:40.592Z,4.50
2023-04-25T20:25:09.956Z,4.60
2023-04-25T20:27:40.404Z,4.70
2023-04-25T20:30:09.772Z,4.70
2023-04-25T20:32:37.593Z,4.80
2023-04-25T20:35:08.697Z,4.80
2023-04-25T20:37:36.277Z,4.70
2023-04-25T20:40:07.500Z,4.70
2023-04-25T20:42:34.695Z,4.70
2023-04-25T20:45:02.619Z,4.70
2023-04-25T20:47:29.758Z,4.60
2023-04-25T20:49:57.597Z,4.60
2023-04-25T20:52:24.678Z,4.60
2023-04-25T20:54:54.114Z,4.60
2023-04-25T20:57:21.204Z,4.60
2023-04-25T20:59:48.979Z,4.60
2023-04-25T21:02:17.889Z,4.60
2023-04-25T21:04:45.650Z,4.70
2023-04-25T21:07:13.476Z,4.60
2023-04-25T21:09:42.579Z,4.60
2023-04-25T21:12:09.723Z,4.50
2023-04-25T21:14:36.981Z,4.50
2023-04-25T21:17:04.508Z,4.40
2023-04-25T21:19:31.769Z,4.30
2023-04-25T21:21:59.247Z,4.20
2023-04-25T21:24:27.331Z,4.20
2023-04-25T21:26:54.473Z,4.20
2023-04-25T21:29:21.461Z,4.10
2023-04-25T21:31:48.543Z,4.00
2023-04-25T21:34:15.634Z,4.00
2023-04-25T21:36:44.266Z,3.90
2023-04-25T21:39:11.430Z,3.90
2023-04-25T21:41:38.627Z,3.80
2023-04-25T21:44:06.560Z,3.80
2023-04-25T21:46:34.442Z,3.80
2023-04-25T21:49:01.567Z,3.70
2023-04-25T21:51:29.153Z,3.70
2023-04-25T21:53:56.304Z,3.60
2023-04-25T21:56:23.377Z,3.60
2023-04-25T21:58:50.892Z,3.60
2023-04-25T22:01:18.098Z,3.60
2023-04-25T22:03:45.468Z,3.50
2023-04-25T22:06:12.757Z,3.50
2023-04-25T22:08:39.879Z,3.40
2023-04-25T22:11:08.079Z,3.40
2023-04-25T22:13:35.793Z,3.30
2023-04-25T22:16:02.969Z,3.30
2023-04-25T22:18:30.502Z,3.30
2023-04-25T22:20:57.573Z,3.30
2023-04-25T22:23:25.636Z,3.30
2023-04-25T22:25:52.714Z,3.20
2023-04-25T22:28:20.363Z,3.20
2023-04-25T22:30:47.357Z,3.20
2023-04-25T22:33:14.452Z,3.10
2023-04-25T22:35:41.600Z,3.10
2023-04-25T22:38:08.688Z,3.10
2023-04-25T22:40:35.775Z,3.10
2023-04-25T22:43:03.006Z,3.00
2023-04-25T22:45:30.101Z,3.00
2023-04-25T22:47:57.341Z,3.00
2023-04-25T22:50:24.498Z,3.00
2023-04-25T22:52:51.452Z,3.00
2023-04-25T22:55:18.487Z,3.00
2023-04-25T22:57:45.680Z,3.00
2023-04-25T23:00:19.634Z,3.00
2023-04-25T23:02:47.307Z,3.00
2023-04-25T23:05:15.691Z,3.10
2023-04-25T23:07:44.676Z,3.10
2023-04-25T23:10:13.091Z,3.20
2023-04-25T23:12:40.451Z,3.30
2023-04-25T23:15:08.752Z,3.30
2023-04-25T23:17:37.141Z,3.30
2023-04-25T23:20:07.475Z,3.30
2023-04-25T23:22:34.748Z,3.30
2023-04-25T23:25:02.259Z,3.20
2023-04-25T23:27:29.304Z,3.10
2023-04-25T23:29:56.610Z,3.00
2023-04-25T23:32:25.594Z,3.00
2023-04-25T23:34:52.634Z,3.00
2023-04-25T23:37:19.640Z,2.90
2023-04-25T23:39:50.866Z,2.80
2023-04-25T23:42:18.881Z,2.80
2023-04-25T23:44:46.053Z,2.70
2023-04-25T23:47:14.257Z,2.70
2023-04-25T23:49:41.531Z,2.60
2023-04-25T23:52:09.806Z,2.60
2023-04-25T23:54:37.287Z,2.60
2023-04-25T23:57:04.484Z,2.60
2023-04-25T23:59:31.932Z,2.60
